Umgeni — 9V9273 — position and weather

sailwx.info

Track history (hours):
 
Tides and Currents Weather Stations Pressure Air Temp Water Temp Dewpoint Dewpoint Depression Visibility Wind Speed Wind Dir Waves Ship Positions

Umgeni

Last reported at 2018-Jun-21 21:57 UTC. Time now 2018-Jun-21 22:01 UTC.
Position N 51°52' E 004°19'.

Length 144 m; draft 5.8 m.

Type: Tanker. MMSI: 566043000.

Date/timePositionNaut miles runAvg speedWind from/ knotsBaromVisibWave heightAir tempDewpointWater temp
2018-Jun-21 21:57N 51°52' E 004°19'0 0.0
2018-Jun-21 21:27N 51°52' E 004°19'0 0.0
2018-Jun-21 20:57N 51°52' E 004°19'0 0.0
2018-Jun-21 20:27N 51°52' E 004°19'0 0.0
2018-Jun-21 20:00N 51°52' E 004°19'0 0.0
2018-Jun-21 19:30N 51°52' E 004°19'0 0.0
2018-Jun-21 18:57N 51°52' E 004°19'0 0.0
2018-Jun-21 18:30N 51°52' E 004°19'0 0.0
2018-Jun-21 17:57N 51°52' E 004°19'0 0.0
2018-Jun-21 17:27N 51°52' E 004°19'0 0.0
2018-Jun-21 17:00N 51°52' E 004°19'0 0.0
2018-Jun-21 16:30N 51°52' E 004°19'0 0.0
2018-Jun-21 16:00N 51°52' E 004°19'0 0.0
2018-Jun-21 15:27N 51°52' E 004°19'0 0.0
2018-Jun-21 15:00N 51°52' E 004°19'0 0.0
2018-Jun-21 14:27N 51°52' E 004°19'0 0.0
2018-Jun-21 14:00N 51°52' E 004°19'0 0.0
2018-Jun-21 13:27N 51°52' E 004°19'0 0.0
2018-Jun-21 13:00N 51°52' E 004°19'0 0.0
2018-Jun-21 12:30N 51°52' E 004°19'0 0.0
2018-Jun-21 11:57N 51°52' E 004°19'0 0.0
2018-Jun-21 11:27N 51°52' E 004°19'0 0.0
2018-Jun-21 10:57N 51°52' E 004°19'0 0.0
2018-Jun-21 10:30N 51°52' E 004°19'0 0.0
2018-Jun-21 09:57N 51°52' E 004°19'0 0.0
2018-Jun-21 09:30N 51°52' E 004°19'0 0.0
2018-Jun-21 09:00N 51°52' E 004°19'0 0.0
2018-Jun-21 08:24N 51°52' E 004°19'0 0.0
2018-Jun-21 08:00N 51°52' E 004°19'0 0.0
2018-Jun-21 07:30N 51°52' E 004°19'0 0.0
2018-Jun-21 07:00N 51°52' E 004°19'0 0.0
2018-Jun-21 06:30N 51°52' E 004°19'0 0.0
2018-Jun-21 05:57N 51°52' E 004°19'0 0.0
2018-Jun-21 05:30N 51°52' E 004°19'0 0.0
2018-Jun-21 04:57N 51°52' E 004°19'0 0.0
2018-Jun-21 04:30N 51°52' E 004°19'0 0.0
2018-Jun-21 04:00N 51°52' E 004°19'0 0.0
2018-Jun-21 03:30N 51°52' E 004°19'0 0.0
2018-Jun-21 02:57N 51°52' E 004°19'0 0.0
2018-Jun-21 02:30N 51°52' E 004°19'0 0.0
2018-Jun-21 02:00N 51°52' E 004°19'0 0.0
2018-Jun-21 01:30N 51°52' E 004°19'0 0.0
2018-Jun-21 01:00N 51°52' E 004°19'0 0.0
2018-Jun-21 00:30N 51°52' E 004°19'0 0.0
2018-Jun-21 00:00N 51°52' E 004°19'0 0.0
2018-Jun-20 23:27N 51°52' E 004°19'0 0.0
2018-Jun-20 23:00N 51°52' E 004°19'0 0.0
2018-Jun-20 22:27N 51°52' E 004°19'0 0.0
2018-Jun-20 21:57N 51°52' E 004°19'0 0.4
2018-Jun-20 21:30N 51°53' E 004°19'2 3.3
2018-Jun-20 21:00N 51°54' E 004°17'4 8.9
2018-Jun-20 20:30N 51°57' E 004°11'510.1
2018-Jun-20 20:00N 51°59' E 004°04'5 9.4
2018-Jun-20 19:30N 52°01' E 003°57'5 9.8
2018-Jun-20 19:00N 52°00' E 003°49'4 8.1
2018-Jun-20 18:31N 51°57' E 003°45'0 0.4
2018-Jun-20 18:00N 51°57' E 003°45'0 0.1
2018-Jun-20 17:27N 51°57' E 003°45'0 0.1
2018-Jun-20 17:01N 51°57' E 003°45'0 0.0
2018-Jun-20 16:27N 51°57' E 003°45'0 0.0
2018-Jun-20 15:58N 51°57' E 003°45'0 0.2
2018-Jun-20 15:30N 51°57' E 003°45'0 0.1
2018-Jun-20 15:00N 51°57' E 003°45'0 0.2
2018-Jun-20 14:30N 51°57' E 003°45'0 1.0
2018-Jun-20 14:00N 51°57' E 003°45'4 7.1
2018-Jun-20 13:29N 51°57' E 003°39'611.9
2018-Jun-20 13:00N 51°56' E 003°30'511.2
2018-Jun-20 12:30N 51°54' E 003°22'612.1
2018-Jun-20 11:59N 51°48' E 003°18'2 0.3
2018-Jun-20 05:17N 51°47' E 003°20'0 0.1
2018-Jun-20 03:29N 51°46' E 003°20'0 0.1
2018-Jun-20 02:56N 51°46' E 003°20'0 0.0
2018-Jun-20 01:41N 51°46' E 003°20'0 0.0
2018-Jun-19 19:41N 51°47' E 003°20'0 0.0
2018-Jun-19 19:14N 51°47' E 003°20'0 0.0
2018-Jun-19 18:53N 51°47' E 003°20'0 0.0
2018-Jun-19 18:26N 51°47' E 003°20'0 0.0
2018-Jun-19 17:59N 51°47' E 003°20'0 0.0
2018-Jun-19 17:29N 51°47' E 003°20'0 0.0
2018-Jun-19 15:41N 51°47' E 003°20'0 0.0
2018-Jun-19 12:44N 51°46' E 003°20'0 0.0
2018-Jun-19 12:29N 51°46' E 003°20'0 0.0
2018-Jun-19 11:59N 51°46' E 003°20'0 0.0
2018-Jun-19 11:29N 51°46' E 003°20'0 0.2
2018-Jun-19 10:56N 51°47' E 003°20'0 0.2
2018-Jun-19 10:26N 51°47' E 003°20'0 0.0
2018-Jun-19 09:08N 51°47' E 003°20'0 0.1
2018-Jun-19 08:56N 51°47' E 003°20'0 0.0
2018-Jun-19 08:20N 51°47' E 003°20'0 0.0
2018-Jun-19 07:41N 51°47' E 003°20'0 0.0
2018-Jun-18 15:20N 51°47' E 003°20'1 4.1
2018-Jun-18 15:00N 51°46' E 003°18'4 9.0
2018-Jun-18 14:30N 51°41' E 003°18'510.9
2018-Jun-18 14:00N 51°37' E 003°23'510.6
2018-Jun-18 13:30N 51°32' E 003°26'5 9.7
2018-Jun-18 13:00N 51°28' E 003°31'4 7.3
2018-Jun-18 12:30N 51°26' E 003°36'4 8.1
2018-Jun-18 12:00N 51°25' E 003°42'510.8
2018-Jun-18 11:30N 51°21' E 003°48'611.5
2018-Jun-18 11:00N 51°23' E 003°57'4 7.5
2018-Jun-18 10:30N 51°25' E 004°02'510.1
2018-Jun-18 10:00N 51°23' E 004°10'5 9.1
2018-Jun-18 09:30N 51°21' E 004°16'1 1.3
2018-Jun-18 09:00N 51°21' E 004°17'0 0.0
2018-Jun-18 08:30N 51°21' E 004°17'1 2.6
2018-Jun-18 08:00N 51°20' E 004°18'3 6.4
2018-Jun-18 07:30N 51°17' E 004°21'1 1.2
2018-Jun-18 06:59N 51°16' E 004°21'0 0.0
2018-Jun-18 06:26N 51°16' E 004°21'0 0.0
2018-Jun-18 05:59N 51°16' E 004°21'0 0.0
2018-Jun-18 05:29N 51°16' E 004°21'0 0.0
2018-Jun-18 04:59N 51°16' E 004°21'0 0.0
2018-Jun-18 04:29N 51°16' E 004°21'0 0.0
2018-Jun-18 03:59N 51°16' E 004°21'0 0.0
2018-Jun-18 03:29N 51°16' E 004°21'0 0.0
2018-Jun-18 02:59N 51°16' E 004°21'0 0.0
2018-Jun-18 02:29N 51°16' E 004°21'0 0.0
2018-Jun-18 01:59N 51°16' E 004°21'0 0.0
2018-Jun-18 01:29N 51°16' E 004°21'0 0.0
2018-Jun-18 00:56N 51°16' E 004°21'0 0.0
2018-Jun-18 00:29N 51°16' E 004°21'0 0.0
2018-Jun-17 23:56N 51°16' E 004°21'0 0.0
2018-Jun-17 23:23N 51°16' E 004°21'0 0.0
2018-Jun-17 22:59N 51°16' E 004°21'0 0.0
2018-Jun-17 22:29N 51°16' E 004°21'0 0.0
2018-Jun-17 21:59N 51°16' E 004°21'0 0.0
2018-Jun-17 21:29N 51°16' E 004°21'0 0.0
2018-Jun-17 20:59N 51°16' E 004°21'0 0.0
2018-Jun-17 20:29N 51°16' E 004°21'0 0.0
2018-Jun-17 19:56N 51°16' E 004°21'0 0.0
2018-Jun-17 19:29N 51°16' E 004°21'0 0.0
2018-Jun-17 18:56N 51°16' E 004°21'0 0.0
2018-Jun-17 18:26N 51°16' E 004°21'0 0.0
2018-Jun-17 17:59N 51°16' E 004°21'0 0.0
2018-Jun-17 17:26N 51°16' E 004°21'0 0.0
2018-Jun-17 16:59N 51°16' E 004°21'0 0.0
2018-Jun-17 16:29N 51°16' E 004°21'0 0.0
2018-Jun-17 15:59N 51°16' E 004°21'0 0.0
2018-Jun-17 15:29N 51°16' E 004°21'0 0.0
2018-Jun-17 14:59N 51°16' E 004°21'0 0.0
2018-Jun-17 14:29N 51°16' E 004°21'0 0.0
2018-Jun-17 13:59N 51°16' E 004°21'0 0.0
2018-Jun-17 13:29N 51°16' E 004°21'0 0.0
2018-Jun-17 12:59N 51°16' E 004°21'0 0.0
2018-Jun-17 12:29N 51°16' E 004°21'0 0.0
2018-Jun-17 11:59N 51°16' E 004°21'0 0.0
2018-Jun-17 11:26N 51°16' E 004°21'0 0.0
2018-Jun-17 10:56N 51°16' E 004°21'0 0.0
2018-Jun-17 10:26N 51°16' E 004°21'0 0.0
2018-Jun-17 09:59N 51°16' E 004°21'0 0.0
2018-Jun-17 09:29N 51°16' E 004°21'0 0.0
2018-Jun-17 08:59N 51°16' E 004°21'0 0.0
2018-Jun-17 08:29N 51°16' E 004°21'0 0.0
2018-Jun-17 07:59N 51°16' E 004°21'0 0.0
2018-Jun-17 07:23N 51°16' E 004°21'0 0.0
2018-Jun-17 06:56N 51°16' E 004°21'0 0.0
2018-Jun-17 06:29N 51°16' E 004°21'0 0.0
2018-Jun-17 05:59N 51°16' E 004°21'0 0.0
2018-Jun-17 05:29N 51°16' E 004°21'0 0.0
2018-Jun-17 04:59N 51°16' E 004°21'0 0.0
2018-Jun-17 04:23N 51°16' E 004°21'0 0.0
2018-Jun-17 03:59N 51°16' E 004°21'0 0.0
2018-Jun-17 03:26N 51°16' E 004°21'0 0.0
2018-Jun-17 02:59N 51°16' E 004°21'0 0.0
2018-Jun-17 02:29N 51°16' E 004°21'0 0.0
2018-Jun-17 01:59N 51°16' E 004°21'1 1.5
2018-Jun-17 01:30N 51°17' E 004°21'3 5.8
2018-Jun-17 01:00N 51°20' E 004°18'1 3.0
2018-Jun-17 00:30N 51°21' E 004°17'0 0.0
2018-Jun-16 23:53N 51°21' E 004°17'0 0.5
2018-Jun-16 23:29N 51°21' E 004°17'2 4.6
2018-Jun-16 23:00N 51°22' E 004°14'3 5.7
2018-Jun-16 22:30N 51°23' E 004°10'4 7.9
2018-Jun-16 22:01N 51°22' E 004°04'4 7.6
2018-Jun-16 21:30N 51°26' E 004°01'4 7.0
2018-Jun-16 21:01N 51°23' E 003°57'4 7.7
2018-Jun-16 20:30N 51°21' E 003°52'4 7.4
2018-Jun-16 20:00N 51°21' E 003°46'3 7.0
2018-Jun-16 19:31N 51°24' E 003°43'3 6.8
2018-Jun-16 19:00N 51°26' E 003°38'3 5.8
2018-Jun-16 18:30N 51°27' E 003°34'4 7.1
2018-Jun-16 18:00N 51°29' E 003°30'4 7.7
2018-Jun-16 17:31N 51°32' E 003°25'4 7.2
2018-Jun-16 17:00N 51°35' E 003°23'5 8.4
2018-Jun-16 16:22N 51°40' E 003°19'7 8.6
2018-Jun-16 15:31N 51°46' E 003°12'0 9.2
2018-Jun-16 15:29N 51°46' E 003°12'2210.3
2018-Jun-16 13:23N 51°47' E 002°37'3 4.8
2018-Jun-16 12:48N 51°48' E 002°33'311.3
2018-Jun-16 12:30N 51°51' E 002°31'611.8
2018-Jun-16 11:59N 51°57' E 002°27'5712.6
2018-Jun-16 07:25N 52°54' E 002°25'512.3
2018-Jun-16 06:59N 52°60' E 002°26'83 8.9
2018-Jun-15 21:37N 53°37' E 000°21'10 9.5
2018-Jun-15 20:31N 53°34' E 000°05'012.5
2018-Jun-15 20:30N 53°34' E 000°04'611.7
2018-Jun-15 20:00N 53°37' W 000°05'3 6.4
2018-Jun-15 19:30N 53°38' W 000°10'0 0.0
2018-Jun-15 17:38N 53°38' W 000°10'0 0.0
2018-Jun-15 13:59N 53°38' W 000°10'0 0.0
2018-Jun-15 13:29N 53°38' W 000°10'0 0.0
2018-Jun-15 12:59N 53°38' W 000°10'0 0.0
2018-Jun-15 04:47N 53°38' W 000°10'0 0.0
2018-Jun-15 04:26N 53°38' W 000°10'0 0.0
2018-Jun-15 03:53N 53°38' W 000°10'0 0.0
2018-Jun-15 03:29N 53°38' W 000°10'0 0.0
2018-Jun-15 02:29N 53°38' W 000°10'0 0.0
2018-Jun-15 01:59N 53°38' W 000°10'0 0.0
2018-Jun-15 01:26N 53°38' W 000°10'0 0.2
2018-Jun-15 01:00N 53°38' W 000°10'3 5.0
2018-Jun-15 00:30N 53°37' W 000°06'4 8.2
2018-Jun-15 00:01N 53°37' E 000°01'12 0.3
2018-Jun-13 02:58N 53°37' E 000°22'0 0.0
2018-Jun-13 02:25N 53°37' E 000°22'0 0.0
2018-Jun-13 01:58N 53°37' E 000°22'0 0.0
2018-Jun-13 00:49N 53°37' E 000°22'0 0.0
2018-Jun-13 00:28N 53°37' E 000°22'0 0.0
2018-Jun-12 16:10N 53°37' E 000°22'0 0.0
2018-Jun-12 15:52N 53°37' E 000°22'0 0.0
2018-Jun-12 14:52N 53°36' E 000°22'0 0.0
2018-Jun-12 13:55N 53°37' E 000°22'0 0.0
2018-Jun-12 13:22N 53°36' E 000°22'  
Track history (hours):
 
Tides and Currents Weather Stations Pressure Air Temp Water Temp Dewpoint Dewpoint Depression Visibility Wind Speed Wind Dir Waves Ship Positions

Umgeni

Last reported at 2018-Jun-21 21:57 UTC. Time now 2018-Jun-21 22:01 UTC.
Position N 51°52' E 004°19'.

Length 144 m; draft 5.8 m.

Type: Tanker. MMSI: 566043000.

Date/timePositionNaut miles runAvg speedWind from/ knotsBaromVisibWave heightAir tempDewpointWater temp
2018-Jun-21 21:57N 51°52' E 004°19'0 0.0
2018-Jun-21 21:27N 51°52' E 004°19'0 0.0
2018-Jun-21 20:57N 51°52' E 004°19'0 0.0
2018-Jun-21 20:27N 51°52' E 004°19'0 0.0
2018-Jun-21 20:00N 51°52' E 004°19'0 0.0
2018-Jun-21 19:30N 51°52' E 004°19'0 0.0
2018-Jun-21 18:57N 51°52' E 004°19'0 0.0
2018-Jun-21 18:30N 51°52' E 004°19'0 0.0
2018-Jun-21 17:57N 51°52' E 004°19'0 0.0
2018-Jun-21 17:27N 51°52' E 004°19'0 0.0
2018-Jun-21 17:00N 51°52' E 004°19'0 0.0
2018-Jun-21 16:30N 51°52' E 004°19'0 0.0
2018-Jun-21 16:00N 51°52' E 004°19'0 0.0
2018-Jun-21 15:27N 51°52' E 004°19'0 0.0
2018-Jun-21 15:00N 51°52' E 004°19'0 0.0
2018-Jun-21 14:27N 51°52' E 004°19'0 0.0
2018-Jun-21 14:00N 51°52' E 004°19'0 0.0
2018-Jun-21 13:27N 51°52' E 004°19'0 0.0
2018-Jun-21 13:00N 51°52' E 004°19'0 0.0
2018-Jun-21 12:30N 51°52' E 004°19'0 0.0
2018-Jun-21 11:57N 51°52' E 004°19'0 0.0
2018-Jun-21 11:27N 51°52' E 004°19'0 0.0
2018-Jun-21 10:57N 51°52' E 004°19'0 0.0
2018-Jun-21 10:30N 51°52' E 004°19'0 0.0
2018-Jun-21 09:57N 51°52' E 004°19'0 0.0
2018-Jun-21 09:30N 51°52' E 004°19'0 0.0
2018-Jun-21 09:00N 51°52' E 004°19'0 0.0
2018-Jun-21 08:24N 51°52' E 004°19'0 0.0
2018-Jun-21 08:00N 51°52' E 004°19'0 0.0
2018-Jun-21 07:30N 51°52' E 004°19'0 0.0
2018-Jun-21 07:00N 51°52' E 004°19'0 0.0
2018-Jun-21 06:30N 51°52' E 004°19'0 0.0
2018-Jun-21 05:57N 51°52' E 004°19'0 0.0
2018-Jun-21 05:30N 51°52' E 004°19'0 0.0
2018-Jun-21 04:57N 51°52' E 004°19'0 0.0
2018-Jun-21 04:30N 51°52' E 004°19'0 0.0
2018-Jun-21 04:00N 51°52' E 004°19'0 0.0
2018-Jun-21 03:30N 51°52' E 004°19'0 0.0
2018-Jun-21 02:57N 51°52' E 004°19'0 0.0
2018-Jun-21 02:30N 51°52' E 004°19'0 0.0
2018-Jun-21 02:00N 51°52' E 004°19'0 0.0
2018-Jun-21 01:30N 51°52' E 004°19'0 0.0
2018-Jun-21 01:00N 51°52' E 004°19'0 0.0
2018-Jun-21 00:30N 51°52' E 004°19'0 0.0
2018-Jun-21 00:00N 51°52' E 004°19'0 0.0
2018-Jun-20 23:27N 51°52' E 004°19'0 0.0
2018-Jun-20 23:00N 51°52' E 004°19'0 0.0
2018-Jun-20 22:27N 51°52' E 004°19'0 0.0
2018-Jun-20 21:57N 51°52' E 004°19'0 0.4
2018-Jun-20 21:30N 51°53' E 004°19'2 3.3
2018-Jun-20 21:00N 51°54' E 004°17'4 8.9
2018-Jun-20 20:30N 51°57' E 004°11'510.1
2018-Jun-20 20:00N 51°59' E 004°04'5 9.4
2018-Jun-20 19:30N 52°01' E 003°57'5 9.8
2018-Jun-20 19:00N 52°00' E 003°49'4 8.1
2018-Jun-20 18:31N 51°57' E 003°45'0 0.4
2018-Jun-20 18:00N 51°57' E 003°45'0 0.1
2018-Jun-20 17:27N 51°57' E 003°45'0 0.1
2018-Jun-20 17:01N 51°57' E 003°45'0 0.0
2018-Jun-20 16:27N 51°57' E 003°45'0 0.0
2018-Jun-20 15:58N 51°57' E 003°45'0 0.2
2018-Jun-20 15:30N 51°57' E 003°45'0 0.1
2018-Jun-20 15:00N 51°57' E 003°45'0 0.2
2018-Jun-20 14:30N 51°57' E 003°45'0 1.0
2018-Jun-20 14:00N 51°57' E 003°45'4 7.1
2018-Jun-20 13:29N 51°57' E 003°39'611.9
2018-Jun-20 13:00N 51°56' E 003°30'511.2
2018-Jun-20 12:30N 51°54' E 003°22'612.1
2018-Jun-20 11:59N 51°48' E 003°18'2 0.3
2018-Jun-20 05:17N 51°47' E 003°20'0 0.1
2018-Jun-20 03:29N 51°46' E 003°20'0 0.1
2018-Jun-20 02:56N 51°46' E 003°20'0 0.0
2018-Jun-20 01:41N 51°46' E 003°20'0 0.0
2018-Jun-19 19:41N 51°47' E 003°20'0 0.0
2018-Jun-19 19:14N 51°47' E 003°20'0 0.0
2018-Jun-19 18:53N 51°47' E 003°20'0 0.0
2018-Jun-19 18:26N 51°47' E 003°20'0 0.0
2018-Jun-19 17:59N 51°47' E 003°20'0 0.0
2018-Jun-19 17:29N 51°47' E 003°20'0 0.0
2018-Jun-19 15:41N 51°47' E 003°20'0 0.0
2018-Jun-19 12:44N 51°46' E 003°20'0 0.0
2018-Jun-19 12:29N 51°46' E 003°20'0 0.0
2018-Jun-19 11:59N 51°46' E 003°20'0 0.0
2018-Jun-19 11:29N 51°46' E 003°20'0 0.2
2018-Jun-19 10:56N 51°47' E 003°20'0 0.2
2018-Jun-19 10:26N 51°47' E 003°20'0 0.0
2018-Jun-19 09:08N 51°47' E 003°20'0 0.1
2018-Jun-19 08:56N 51°47' E 003°20'0 0.0
2018-Jun-19 08:20N 51°47' E 003°20'0 0.0
2018-Jun-19 07:41N 51°47' E 003°20'0 0.0
2018-Jun-18 15:20N 51°47' E 003°20'1 4.1
2018-Jun-18 15:00N 51°46' E 003°18'4 9.0
2018-Jun-18 14:30N 51°41' E 003°18'510.9
2018-Jun-18 14:00N 51°37' E 003°23'510.6
2018-Jun-18 13:30N 51°32' E 003°26'5 9.7
2018-Jun-18 13:00N 51°28' E 003°31'4 7.3
2018-Jun-18 12:30N 51°26' E 003°36'4 8.1
2018-Jun-18 12:00N 51°25' E 003°42'510.8
2018-Jun-18 11:30N 51°21' E 003°48'611.5
2018-Jun-18 11:00N 51°23' E 003°57'4 7.5
2018-Jun-18 10:30N 51°25' E 004°02'510.1
2018-Jun-18 10:00N 51°23' E 004°10'5 9.1
2018-Jun-18 09:30N 51°21' E 004°16'1 1.3
2018-Jun-18 09:00N 51°21' E 004°17'0 0.0
2018-Jun-18 08:30N 51°21' E 004°17'1 2.6
2018-Jun-18 08:00N 51°20' E 004°18'3 6.4
2018-Jun-18 07:30N 51°17' E 004°21'1 1.2
2018-Jun-18 06:59N 51°16' E 004°21'0 0.0
2018-Jun-18 06:26N 51°16' E 004°21'0 0.0
2018-Jun-18 05:59N 51°16' E 004°21'0 0.0
2018-Jun-18 05:29N 51°16' E 004°21'0 0.0
2018-Jun-18 04:59N 51°16' E 004°21'0 0.0
2018-Jun-18 04:29N 51°16' E 004°21'0 0.0
2018-Jun-18 03:59N 51°16' E 004°21'0 0.0
2018-Jun-18 03:29N 51°16' E 004°21'0 0.0
2018-Jun-18 02:59N 51°16' E 004°21'0 0.0
2018-Jun-18 02:29N 51°16' E 004°21'0 0.0
2018-Jun-18 01:59N 51°16' E 004°21'0 0.0
2018-Jun-18 01:29N 51°16' E 004°21'0 0.0
2018-Jun-18 00:56N 51°16' E 004°21'0 0.0
2018-Jun-18 00:29N 51°16' E 004°21'0 0.0
2018-Jun-17 23:56N 51°16' E 004°21'0 0.0
2018-Jun-17 23:23N 51°16' E 004°21'0 0.0
2018-Jun-17 22:59N 51°16' E 004°21'0 0.0
2018-Jun-17 22:29N 51°16' E 004°21'0 0.0
2018-Jun-17 21:59N 51°16' E 004°21'0 0.0
2018-Jun-17 21:29N 51°16' E 004°21'0 0.0
2018-Jun-17 20:59N 51°16' E 004°21'0 0.0
2018-Jun-17 20:29N 51°16' E 004°21'0 0.0
2018-Jun-17 19:56N 51°16' E 004°21'0 0.0
2018-Jun-17 19:29N 51°16' E 004°21'0 0.0
2018-Jun-17 18:56N 51°16' E 004°21'0 0.0
2018-Jun-17 18:26N 51°16' E 004°21'0 0.0
2018-Jun-17 17:59N 51°16' E 004°21'0 0.0
2018-Jun-17 17:26N 51°16' E 004°21'0 0.0
2018-Jun-17 16:59N 51°16' E 004°21'0 0.0
2018-Jun-17 16:29N 51°16' E 004°21'0 0.0
2018-Jun-17 15:59N 51°16' E 004°21'0 0.0
2018-Jun-17 15:29N 51°16' E 004°21'0 0.0
2018-Jun-17 14:59N 51°16' E 004°21'0 0.0
2018-Jun-17 14:29N 51°16' E 004°21'0 0.0
2018-Jun-17 13:59N 51°16' E 004°21'0 0.0
2018-Jun-17 13:29N 51°16' E 004°21'0 0.0
2018-Jun-17 12:59N 51°16' E 004°21'0 0.0
2018-Jun-17 12:29N 51°16' E 004°21'0 0.0
2018-Jun-17 11:59N 51°16' E 004°21'0 0.0
2018-Jun-17 11:26N 51°16' E 004°21'0 0.0
2018-Jun-17 10:56N 51°16' E 004°21'0 0.0
2018-Jun-17 10:26N 51°16' E 004°21'0 0.0
2018-Jun-17 09:59N 51°16' E 004°21'0 0.0
2018-Jun-17 09:29N 51°16' E 004°21'0 0.0
2018-Jun-17 08:59N 51°16' E 004°21'0 0.0
2018-Jun-17 08:29N 51°16' E 004°21'0 0.0
2018-Jun-17 07:59N 51°16' E 004°21'0 0.0
2018-Jun-17 07:23N 51°16' E 004°21'0 0.0
2018-Jun-17 06:56N 51°16' E 004°21'0 0.0
2018-Jun-17 06:29N 51°16' E 004°21'0 0.0
2018-Jun-17 05:59N 51°16' E 004°21'0 0.0
2018-Jun-17 05:29N 51°16' E 004°21'0 0.0
2018-Jun-17 04:59N 51°16' E 004°21'0 0.0
2018-Jun-17 04:23N 51°16' E 004°21'0 0.0
2018-Jun-17 03:59N 51°16' E 004°21'0 0.0
2018-Jun-17 03:26N 51°16' E 004°21'0 0.0
2018-Jun-17 02:59N 51°16' E 004°21'0 0.0
2018-Jun-17 02:29N 51°16' E 004°21'0 0.0
2018-Jun-17 01:59N 51°16' E 004°21'1 1.5
2018-Jun-17 01:30N 51°17' E 004°21'3 5.8
2018-Jun-17 01:00N 51°20' E 004°18'1 3.0
2018-Jun-17 00:30N 51°21' E 004°17'0 0.0
2018-Jun-16 23:53N 51°21' E 004°17'0 0.5
2018-Jun-16 23:29N 51°21' E 004°17'2 4.6
2018-Jun-16 23:00N 51°22' E 004°14'3 5.7
2018-Jun-16 22:30N 51°23' E 004°10'4 7.9
2018-Jun-16 22:01N 51°22' E 004°04'4 7.6
2018-Jun-16 21:30N 51°26' E 004°01'4 7.0
2018-Jun-16 21:01N 51°23' E 003°57'4 7.7
2018-Jun-16 20:30N 51°21' E 003°52'4 7.4
2018-Jun-16 20:00N 51°21' E 003°46'3 7.0
2018-Jun-16 19:31N 51°24' E 003°43'3 6.8
2018-Jun-16 19:00N 51°26' E 003°38'3 5.8
2018-Jun-16 18:30N 51°27' E 003°34'4 7.1
2018-Jun-16 18:00N 51°29' E 003°30'4 7.7
2018-Jun-16 17:31N 51°32' E 003°25'4 7.2
2018-Jun-16 17:00N 51°35' E 003°23'5 8.4
2018-Jun-16 16:22N 51°40' E 003°19'7 8.6
2018-Jun-16 15:31N 51°46' E 003°12'0 9.2
2018-Jun-16 15:29N 51°46' E 003°12'2210.3
2018-Jun-16 13:23N 51°47' E 002°37'3 4.8
2018-Jun-16 12:48N 51°48' E 002°33'311.3
2018-Jun-16 12:30N 51°51' E 002°31'611.8
2018-Jun-16 11:59N 51°57' E 002°27'5712.6
2018-Jun-16 07:25N 52°54' E 002°25'512.3
2018-Jun-16 06:59N 52°60' E 002°26'83 8.9
2018-Jun-15 21:37N 53°37' E 000°21'10 9.5
2018-Jun-15 20:31N 53°34' E 000°05'012.5
2018-Jun-15 20:30N 53°34' E 000°04'611.7
2018-Jun-15 20:00N 53°37' W 000°05'3 6.4
2018-Jun-15 19:30N 53°38' W 000°10'0 0.0
2018-Jun-15 17:38N 53°38' W 000°10'0 0.0
2018-Jun-15 13:59N 53°38' W 000°10'0 0.0
2018-Jun-15 13:29N 53°38' W 000°10'0 0.0
2018-Jun-15 12:59N 53°38' W 000°10'0 0.0
2018-Jun-15 04:47N 53°38' W 000°10'0 0.0
2018-Jun-15 04:26N 53°38' W 000°10'0 0.0
2018-Jun-15 03:53N 53°38' W 000°10'0 0.0
2018-Jun-15 03:29N 53°38' W 000°10'0 0.0
2018-Jun-15 02:29N 53°38' W 000°10'0 0.0
2018-Jun-15 01:59N 53°38' W 000°10'0 0.0
2018-Jun-15 01:26N 53°38' W 000°10'0 0.2
2018-Jun-15 01:00N 53°38' W 000°10'3 5.0
2018-Jun-15 00:30N 53°37' W 000°06'4 8.2
2018-Jun-15 00:01N 53°37' E 000°01'12 0.3
2018-Jun-13 02:58N 53°37' E 000°22'0 0.0
2018-Jun-13 02:25N 53°37' E 000°22'0 0.0
2018-Jun-13 01:58N 53°37' E 000°22'0 0.0
2018-Jun-13 00:49N 53°37' E 000°22'0 0.0
2018-Jun-13 00:28N 53°37' E 000°22'0 0.0
2018-Jun-12 16:10N 53°37' E 000°22'0 0.0
2018-Jun-12 15:52N 53°37' E 000°22'0 0.0
2018-Jun-12 14:52N 53°36' E 000°22'0 0.0
2018-Jun-12 13:55N 53°37' E 000°22'0 0.0
2018-Jun-12 13:22N 53°36' E 000°22'  

Dump ship's entire track history